createdAt,value
2023-11-27T00:01:05.802Z,62063.06
2023-11-27T00:03:33.571Z,62078.03
2023-11-27T00:06:01.308Z,62049.28
2023-11-27T00:08:30.051Z,62012.03
2023-11-27T00:11:00.153Z,62034.78
2023-11-27T00:13:29.147Z,62079.78
2023-11-27T00:15:56.802Z,62050.25
2023-11-27T00:18:24.541Z,61995.03
2023-11-27T00:20:53.181Z,61962.91
2023-11-27T00:23:25.419Z,62051.03
2023-11-27T00:25:53.198Z,62020.81
2023-11-27T00:28:20.846Z,62044.75
2023-11-27T00:30:53.245Z,62084.63
2023-11-27T00:33:21.743Z,62040.69
2023-11-27T00:35:49.988Z,62106.50
2023-11-27T00:38:17.843Z,62085.47
2023-11-27T00:40:49.038Z,62046.78
2023-11-27T00:43:17.355Z,62032.59
2023-11-27T00:45:45.204Z,62105.19
2023-11-27T00:48:13.583Z,62018.59
2023-11-27T00:50:41.429Z,62043.38
2023-11-27T00:53:09.083Z,62026.63
2023-11-27T00:55:37.123Z,62015.41
2023-11-27T00:58:04.838Z,62018.00
2023-11-27T01:00:32.566Z,62072.09
2023-11-27T01:03:00.323Z,62078.28
2023-11-27T01:05:28.503Z,62052.44
2023-11-27T01:07:56.260Z,62071.22
2023-11-27T01:10:26.609Z,62052.13
2023-11-27T01:12:55.205Z,62061.59
2023-11-27T01:15:23.063Z,62004.41
2023-11-27T01:17:50.955Z,62034.81
2023-11-27T01:20:21.027Z,62004.56
2023-11-27T01:22:48.741Z,61980.16
2023-11-27T01:25:20.093Z,61997.81
2023-11-27T01:27:48.649Z,62003.84
2023-11-27T01:30:20.035Z,61975.06
2023-11-27T01:32:47.822Z,62004.50
2023-11-27T01:35:15.584Z,62050.38
2023-11-27T01:37:43.296Z,62068.22
2023-11-27T01:40:11.638Z,62066.09
2023-11-27T01:42:39.525Z,62075.88
2023-11-27T01:45:08.203Z,62032.03
2023-11-27T01:47:37.067Z,62064.78
2023-11-27T01:50:07.209Z,62066.81
2023-11-27T01:52:36.528Z,62095.22
2023-11-27T01:55:04.714Z,62057.38
2023-11-27T01:57:32.678Z,62107.00
2023-11-27T02:00:03.117Z,62068.84
2023-11-27T02:02:48.619Z,62058.91
2023-11-27T02:05:19.807Z,62041.97
2023-11-27T02:07:47.599Z,62049.91
2023-11-27T02:10:18.899Z,61999.75
2023-11-27T02:12:46.590Z,62043.88
2023-11-27T02:15:14.799Z,62061.81
2023-11-27T02:17:42.479Z,62007.91
2023-11-27T02:20:12.281Z,62071.88
2023-11-27T02:22:39.915Z,62074.91
2023-11-27T02:25:08.423Z,62052.84
2023-11-27T02:27:37.476Z,62055.41
2023-11-27T02:30:05.771Z,62031.22
2023-11-27T02:32:33.998Z,62048.28
2023-11-27T02:35:01.724Z,62071.88
2023-11-27T02:37:33.542Z,62044.19
2023-11-27T02:40:02.291Z,62036.19
2023-11-27T02:42:30.080Z,62067.06
2023-11-27T02:44:58.185Z,62090.19
2023-11-27T02:47:27.936Z,62068.22
2023-11-27T02:49:55.726Z,62046.16
2023-11-27T02:52:23.411Z,62097.59
2023-11-27T02:54:52.386Z,62079.06
2023-11-27T02:57:20.661Z,62114.06
2023-11-27T02:59:48.315Z,62143.84
2023-11-27T03:02:16.182Z,62121.34
2023-11-27T03:04:46.383Z,62142.72
2023-11-27T03:07:14.388Z,62081.59
2023-11-27T03:09:43.943Z,62099.88
2023-11-27T03:12:12.251Z,62089.13
2023-11-27T03:14:39.987Z,62134.47
2023-11-27T03:17:07.688Z,62081.16
2023-11-27T03:19:47.600Z,62089.53
2023-11-27T03:22:21.921Z,62068.72
2023-11-27T03:24:49.712Z,62124.63
2023-11-27T03:27:17.434Z,62098.56
2023-11-27T03:29:45.157Z,62105.88
2023-11-27T03:32:12.872Z,62128.28
2023-11-27T03:34:40.677Z,62129.19
2023-11-27T03:37:11.406Z,62071.25
2023-11-27T03:39:39.183Z,62088.56
2023-11-27T03:42:07.192Z,62076.81
2023-11-27T03:44:34.819Z,62071.81
2023-11-27T03:47:02.553Z,62000.00
2023-11-27T03:49:30.210Z,62051.06
2023-11-27T03:51:57.984Z,62085.59
2023-11-27T03:54:25.921Z,62031.09
2023-11-27T03:56:53.608Z,62144.13
2023-11-27T03:59:22.034Z,62021.50
2023-11-27T04:01:49.882Z,62071.06
2023-11-27T04:04:17.985Z,62090.88
2023-11-27T04:06:48.686Z,62059.25
2023-11-27T04:09:20.122Z,62055.91
2023-11-27T04:11:49.912Z,62077.41
2023-11-27T04:14:17.763Z,62094.22
2023-11-27T04:16:45.566Z,62068.63
2023-11-27T04:19:13.539Z,62113.47
2023-11-27T04:21:41.450Z,62103.88
2023-11-27T04:24:09.224Z,62127.84
2023-11-27T04:26:37.044Z,62155.47
2023-11-27T04:29:06.937Z,62152.72
2023-11-27T04:31:34.918Z,62104.69
2023-11-27T04:34:02.865Z,62030.41
2023-11-27T04:36:30.525Z,62110.59
2023-11-27T04:38:58.287Z,62103.06
2023-11-27T04:41:25.971Z,62122.09
2023-11-27T04:43:53.629Z,62100.97
2023-11-27T04:46:21.468Z,62122.97
2023-11-27T04:48:49.502Z,62165.44
2023-11-27T04:51:17.370Z,62161.63
2023-11-27T04:53:45.113Z,62129.22
2023-11-27T04:56:12.911Z,62161.22
2023-11-27T04:58:40.607Z,62144.28
2023-11-27T05:01:08.362Z,62210.16
2023-11-27T05:03:36.252Z,62159.56
2023-11-27T05:06:05.003Z,62175.47
2023-11-27T05:08:32.719Z,62151.88
2023-11-27T05:11:00.427Z,62224.00
2023-11-27T05:13:30.535Z,62212.66
2023-11-27T05:15:58.217Z,62210.09
2023-11-27T05:18:25.878Z,62162.75
2023-11-27T05:20:53.760Z,62167.34
2023-11-27T05:23:21.376Z,62165.34
2023-11-27T05:25:52.149Z,62161.81
2023-11-27T05:28:19.809Z,62215.56
2023-11-27T05:30:49.937Z,62251.91
2023-11-27T05:33:21.050Z,62222.81
2023-11-27T05:35:48.769Z,62265.22
2023-11-27T05:38:16.485Z,62225.84
2023-11-27T06:25:19.297Z,62188.88
2023-11-27T06:27:49.963Z,62191.22
2023-11-27T06:30:22.697Z,62247.22
2023-11-27T06:32:50.390Z,62207.75
2023-11-27T06:35:18.526Z,62202.50
2023-11-27T06:37:46.221Z,62187.56
2023-11-27T06:40:18.311Z,62245.91
2023-11-27T06:42:48.380Z,62228.31
2023-11-27T06:45:18.779Z,62204.09
2023-11-27T06:47:46.474Z,62249.47
2023-11-27T06:50:14.216Z,62236.31
2023-11-27T06:52:41.786Z,62273.72
2023-11-27T06:55:15.190Z,62252.81
2023-11-27T06:57:42.871Z,62274.53
2023-11-27T07:00:12.207Z,62249.50
2023-11-27T07:02:40.001Z,62258.66
2023-11-27T07:05:08.158Z,62221.72
2023-11-27T07:07:35.935Z,62242.88
2023-11-27T07:10:30.448Z,62220.72
2023-11-27T07:12:58.222Z,62239.13
2023-11-27T07:15:51.100Z,62285.44
2023-11-27T07:18:20.743Z,62275.28
2023-11-27T07:20:50.244Z,62290.59
2023-11-27T07:23:18.006Z,62304.31
2023-11-27T07:26:16.629Z,62274.97
2023-11-27T07:29:18.511Z,62261.34
2023-11-27T07:31:46.288Z,62262.69
2023-11-27T07:34:15.307Z,62322.44
2023-11-27T07:36:42.947Z,62337.03
2023-11-27T07:39:12.035Z,62360.06
2023-11-27T07:41:40.260Z,62312.13
2023-11-27T07:44:16.575Z,62356.16
2023-11-27T07:46:44.309Z,62377.59
2023-11-27T07:49:12.097Z,62364.41
2023-11-27T07:51:39.670Z,62328.91
2023-11-27T07:54:07.411Z,62315.81
2023-11-27T07:56:35.016Z,62308.00
2023-11-27T07:59:02.597Z,62343.75
2023-11-27T08:01:30.246Z,62387.00
2023-11-27T08:03:59.133Z,62379.50
2023-11-27T08:06:27.082Z,62323.97
2023-11-27T08:08:55.488Z,62421.66
2023-11-27T08:11:34.236Z,62335.69
2023-11-27T08:14:02.322Z,62331.78
2023-11-27T08:16:30.367Z,62362.84
2023-11-27T08:18:58.092Z,62384.31
2023-11-27T08:21:26.353Z,62381.91
2023-11-27T08:23:55.435Z,62413.94
2023-11-27T08:26:24.022Z,62395.13
2023-11-27T08:28:51.552Z,62418.91
2023-11-27T08:31:29.471Z,62432.91
2023-11-27T08:33:57.193Z,62427.72
2023-11-27T08:36:29.070Z,62426.56
2023-11-27T08:39:32.082Z,62433.69
2023-11-27T08:42:00.278Z,62491.94
2023-11-27T08:44:28.151Z,62463.16
2023-11-27T08:47:04.971Z,62480.72
2023-11-27T08:49:32.828Z,62462.00
2023-11-27T08:52:01.021Z,62457.94
2023-11-27T08:54:33.996Z,62474.50
2023-11-27T09:06:36.905Z,62513.91
2023-11-27T10:38:12.765Z,62660.09
2023-11-27T10:41:09.755Z,62613.06
2023-11-27T11:41:08.929Z,62726.38
2023-11-27T11:43:53.373Z,62661.94
2023-11-27T11:51:01.636Z,62691.28
2023-11-27T11:54:14.284Z,62744.06
2023-11-27T11:56:48.952Z,62695.06
2023-11-27T12:00:36.314Z,62705.75
2023-11-27T12:03:06.868Z,62670.44
2023-11-27T12:05:38.687Z,62694.13
2023-11-27T12:08:06.800Z,62728.88
2023-11-27T12:10:42.106Z,62720.19
2023-11-27T12:13:16.414Z,62697.50
2023-11-27T12:16:24.524Z,62709.47
2023-11-27T12:18:52.820Z,62691.44
2023-11-27T12:21:53.943Z,62669.00
2023-11-27T12:30:59.620Z,62689.28
2023-11-27T12:32:04.603Z,62690.22
2023-11-27T12:32:11.869Z,62730.44
2023-11-27T12:48:36.602Z,62649.69
2023-11-27T13:07:20.936Z,62704.97
2023-11-27T13:09:48.723Z,62713.16
2023-11-27T13:12:27.067Z,62754.69
2023-11-27T13:18:48.025Z,62735.44
2023-11-27T13:21:24.795Z,62742.56
2023-11-27T13:21:51.927Z,62720.25
2023-11-27T13:23:55.673Z,62728.31
2023-11-27T13:26:30.034Z,62707.53
2023-11-27T13:29:01.638Z,62689.91
2023-11-27T13:31:34.417Z,62764.81
2023-11-27T13:34:33.657Z,62710.53
2023-11-27T13:37:42.752Z,62711.09
2023-11-27T13:40:12.859Z,62684.50
2023-11-27T13:43:24.070Z,62689.03
2023-11-27T13:49:31.879Z,62700.00
2023-11-27T13:52:13.290Z,62684.88
2023-11-27T13:54:59.827Z,62688.41
2023-11-27T14:07:53.228Z,62685.72
2023-11-27T14:14:45.474Z,62667.03
2023-11-27T14:14:51.764Z,62696.59
2023-11-27T14:18:23.039Z,62714.88
2023-11-27T14:21:44.754Z,62719.13
2023-11-27T14:25:25.052Z,62679.13
2023-11-27T14:28:32.126Z,62643.03
2023-11-27T14:31:03.069Z,62654.69
2023-11-27T14:33:32.129Z,62626.16
2023-11-27T14:35:59.891Z,62625.31
2023-11-27T14:38:28.571Z,62657.06
2023-11-27T14:40:58.632Z,62636.78
2023-11-27T14:43:26.971Z,62662.41
2023-11-27T14:46:00.220Z,62666.31
2023-11-27T14:48:33.634Z,62634.47
2023-11-27T14:51:02.371Z,62654.88
2023-11-27T15:06:21.578Z,62614.66
2023-11-27T15:08:55.689Z,62620.09
2023-11-27T17:44:06.878Z,62578.28
2023-11-27T17:47:22.313Z,62552.34
2023-11-27T22:31:29.227Z,62490.56
2023-11-27T23:15:42.214Z,62487.13
2023-11-27T23:18:38.283Z,62503.13
2023-11-27T23:21:06.316Z,62476.00
2023-11-27T23:23:41.885Z,62506.13
2023-11-27T23:26:09.745Z,62513.06
2023-11-27T23:28:39.889Z,62500.31
2023-11-27T23:31:12.976Z,62533.09
2023-11-27T23:33:43.918Z,62497.72
2023-11-27T23:36:14.007Z,62542.84
2023-11-27T23:38:42.060Z,62497.69
2023-11-27T23:41:16.402Z,62530.94
2023-11-27T23:43:51.310Z,62535.53
2023-11-27T23:46:21.622Z,62505.06
2023-11-27T23:49:00.700Z,62510.59
2023-11-27T23:51:31.631Z,62481.59
2023-11-27T23:54:03.881Z,62463.03
2023-11-27T23:56:37.886Z,62499.94
2023-11-27T23:59:23.190Z,62560.19
